Terminal Aerodrome Forecast
Issued by NWS Jackson, KY

Home | Current Version | Previous Version | Text Only | Print | Product List | Glossary On
Versions: 1 2 3 4 5 6 7 8 9 10 11 12 13 14 15 16 17 18 19 20 21 22 23 24 25 26
000
FTUS43 KJKL 261100
TAFJKL
TAF
KJKL 261120Z 2612/2712 00000KT P6SM SCT080 SCT200
     FM270000 VRB03KT P6SM SCT045 BKN080
     FM270600 VRB03KT P6SM VCSH BKN045 OVC080=

USA.gov is the U.S. government's official web portal to all federal, state and local government web resources and services.